Time;durP1;ratioP1;P1;durP2;ratioP2;P2;SDS_P1;SDS_P2;PMS_P1;PMS_P2;Temp;Humidity;BMP_temperature;BMP_pressure;BME280_temperature;BME280_humidity;BME280_pressure;Samples;Min_cycle;Max_cycle;Signal;HPM_P1;HPM_P2
2021/12/06 00:00:19;;;;;;;1888.20;147.50;;;;;;;-143.84;100.00;44495.00;5071593;28;20497;-78
2021/12/06 00:02:47;;;;;;;836.07;68.70;;;;;;;-143.84;100.00;44496.91;5070570;28;20439;-78
2021/12/06 00:05:16;;;;;;;1394.20;103.50;;;;;;;-143.84;100.00;44493.09;5071660;28;20494;-77
2021/12/06 00:07:44;;;;;;;1760.20;131.77;;;;;;;-143.84;100.00;44495.00;5071800;28;20437;-78
2021/12/06 00:10:13;;;;;;;1325.03;100.10;;;;;;;-143.84;100.00;44493.09;5070076;28;20435;-78
2021/12/06 00:12:41;;;;;;;1792.77;145.10;;;;;;;-143.84;100.00;44495.00;5071240;28;20452;-77
2021/12/06 00:15:11;;;;;;;1078.97;94.90;;;;;;;-143.84;100.00;44498.81;5071431;28;20467;-77
2021/12/06 00:17:39;;;;;;;1324.70;113.53;;;;;;;-143.84;100.00;44496.91;5071399;28;20843;-78
2021/12/06 00:20:09;;;;;;;933.13;76.50;;;;;;;-143.84;100.00;44491.19;5071093;28;20479;-78
2021/12/06 00:22:36;;;;;;;1245.97;103.67;;;;;;;-143.84;100.00;44493.09;5071136;28;20499;-78
2021/12/06 00:25:07;;;;;;;1042.60;89.93;;;;;;;-143.84;100.00;44491.19;5071621;28;20463;-77
2021/12/06 00:27:36;;;;;;;1158.00;91.00;;;;;;;-143.84;100.00;44495.00;5071168;28;20444;-78
2021/12/06 00:30:04;;;;;;;1164.40;88.83;;;;;;;-143.84;100.00;44491.19;5071127;28;20451;-78
2021/12/06 00:32:33;;;;;;;991.70;83.30;;;;;;;-143.84;100.00;44495.00;5070831;28;20439;-78
2021/12/06 00:35:00;;;;;;;1119.23;96.40;;;;;;;-143.84;100.00;44496.91;5070974;28;20452;-78
2021/12/06 00:37:33;;;;;;;448.87;50.80;;;;;;;-143.84;100.00;44493.09;5072713;28;20468;-78
2021/12/06 00:40:07;;;;;;;112.37;39.50;;;;;;;-143.84;100.00;44495.00;5079563;28;20480;-78
2021/12/06 00:42:34;;;;;;;207.93;41.33;;;;;;;-143.84;100.00;44493.09;5070827;28;20478;-78
2021/12/06 00:45:02;;;;;;;263.33;42.13;;;;;;;-143.84;100.00;44491.19;5070735;28;20437;-78
2021/12/06 00:47:29;;;;;;;163.50;39.60;;;;;;;-143.84;100.00;44496.91;5070732;28;20953;-78
2021/12/06 00:49:58;;;;;;;97.47;34.37;;;;;;;-143.84;100.00;44493.09;5070878;28;20461;-78
2021/12/06 00:52:26;;;;;;;110.37;32.23;;;;;;;-143.84;100.00;44487.38;5070638;28;20473;-78
2021/12/06 00:54:53;;;;;;;88.70;32.90;;;;;;;-143.84;100.00;44493.09;5071048;28;20494;-78
2021/12/06 00:57:21;;;;;;;75.27;33.10;;;;;;;-143.84;100.00;44493.09;5070465;28;20443;-78
2021/12/06 00:59:48;;;;;;;79.73;31.60;;;;;;;-143.84;100.00;44489.28;5070523;28;20482;-77
2021/12/06 01:02:17;;;;;;;69.97;31.30;;;;;;;-143.84;100.00;44491.19;5070428;28;20506;-77
2021/12/06 01:04:48;;;;;;;81.23;32.20;;;;;;;-143.84;100.00;44485.47;5070412;28;20435;-78
2021/12/06 01:07:17;;;;;;;66.20;30.40;;;;;;;-143.84;100.00;44493.09;5070621;28;20498;-78
2021/12/06 01:09:45;;;;;;;68.40;28.47;;;;;;;-143.84;100.00;44489.28;5070412;28;20867;-78
2021/12/06 01:12:12;;;;;;;71.70;27.30;;;;;;;-143.84;100.00;44489.28;5070229;28;20441;-77
2021/12/06 01:14:39;;;;;;;77.33;30.10;;;;;;;-143.84;100.00;44487.38;5069113;28;20502;-78
2021/12/06 01:17:07;;;;;;;68.43;29.60;;;;;;;-143.84;100.00;44493.09;5070045;28;20444;-78
2021/12/06 01:19:36;;;;;;;76.27;30.70;;;;;;;-143.84;100.00;44491.19;5069817;28;20527;-78
2021/12/06 01:22:17;;;;;;;65.70;28.77;;;;;;;-143.84;100.00;44495.00;5070089;28;20446;-78
2021/12/06 01:24:53;;;;;;;75.77;27.53;;;;;;;-143.84;100.00;44489.28;5070443;28;21303;-77
2021/12/06 01:30:29;;;;;;;88.17;29.17;;;;;;;-143.84;100.00;44491.19;5069246;28;20548;-78
2021/12/06 01:41:16;;;;;;;48.83;22.57;;;;;;;-143.84;100.00;44491.19;5069873;28;20485;-78
2021/12/06 01:44:06;;;;;;;33.60;20.90;;;;;;;-143.84;100.00;44485.47;5069263;28;20453;-78
2021/12/06 01:46:35;;;;;;;40.87;18.80;;;;;;;-143.84;100.00;44487.38;5068969;28;20441;-78
2021/12/06 01:49:04;;;;;;;29.90;16.30;;;;;;;-143.84;100.00;44485.47;5068935;28;20529;-78
2021/12/06 01:51:32;;;;;;;28.60;16.80;;;;;;;-143.84;100.00;44483.56;5068915;28;20503;-77
2021/12/06 01:54:00;;;;;;;32.97;15.07;;;;;;;-143.84;100.00;44474.06;5069163;28;20561;-78
2021/12/06 01:56:29;;;;;;;24.57;12.87;;;;;;;-143.84;100.00;44472.16;5068936;28;20436;-78
2021/12/06 01:58:56;;;;;;;20.27;12.57;;;;;;;-143.84;100.00;44449.31;5068828;28;20449;-78
2021/12/06 02:01:23;;;;;;;23.10;12.60;;;;;;;-143.84;100.00;44430.28;5069382;28;20858;-78
2021/12/06 02:03:51;;;;;;;17.33;12.63;;;;;;;-143.84;100.00;44403.63;5069426;28;21005;-78
2021/12/06 02:06:19;;;;;;;17.57;12.23;;;;;;;-143.84;100.00;44375.06;5069632;28;20448;-78
2021/12/06 02:08:46;;;;;;;15.57;10.97;;;;;;;-143.84;100.00;44376.97;5069666;28;20448;-78
2021/12/06 02:11:13;;;;;;;14.50;11.30;;;;;;;-143.84;100.00;44357.94;5069384;28;20431;-78
2021/12/06 02:13:48;;;;;;;21.87;12.57;;;;;;;-143.84;100.00;44270.34;5069086;28;20440;-78
2021/12/06 02:16:19;;;;;;;20.83;10.43;;;;;;;-143.84;100.00;44277.97;5069343;28;20477;-78
2021/12/06 02:18:51;;;;;;;21.40;10.97;;;;;;;-143.84;100.00;44238.00;5069485;28;20434;-78
2021/12/06 02:21:26;;;;;;;19.00;11.67;;;;;;;-143.84;100.00;44239.91;5069190;28;20488;-78
2021/12/06 02:23:55;;;;;;;22.67;12.63;;;;;;;-143.84;100.00;44243.69;5069338;28;20491;-78
2021/12/06 02:26:23;;;;;;;23.80;12.03;;;;;;;-143.84;100.00;44262.75;5069157;28;20494;-78
2021/12/06 02:28:50;;;;;;;20.40;13.93;;;;;;;-143.84;100.00;44262.75;5069246;28;20454;-78
2021/12/06 02:31:19;;;;;;;26.10;12.60;;;;;;;-143.84;100.00;44272.25;5069186;28;20483;-78
2021/12/06 02:33:48;;;;;;;19.43;12.00;;;;;;;-143.84;100.00;44274.16;5068885;28;20536;-79
2021/12/06 02:36:19;;;;;;;26.17;12.13;;;;;;;-143.84;100.00;44230.38;5069334;28;20452;-78
2021/12/06 02:38:47;;;;;;;20.43;13.00;;;;;;;-143.84;100.00;44238.00;5068884;28;20471;-78
2021/12/06 02:41:17;;;;;;;31.60;14.90;;;;;;;-143.84;100.00;44253.22;5069005;28;20540;-78
2021/12/06 02:43:45;;;;;;;25.10;15.80;;;;;;;-143.84;100.00;44314.13;5069176;28;20453;-78
2021/12/06 02:46:12;;;;;;;29.17;15.67;;;;;;;-143.84;100.00;44338.88;5069029;28;20440;-78
2021/12/06 02:48:40;;;;;;;24.47;14.10;;;;;;;-143.84;100.00;44325.56;5069141;28;20440;-78
2021/12/06 02:51:08;;;;;;;31.20;14.60;;;;;;;-143.84;100.00;44338.88;5068788;28;20438;-78
2021/12/06 02:53:38;;;;;;;23.43;12.87;;;;;;;-143.84;100.00;44310.34;5068811;28;20442;-78
2021/12/06 02:56:17;;;;;;;22.83;12.00;;;;;;;-143.84;100.00;44298.91;5069134;28;20504;-78
2021/12/06 02:58:56;;;;;;;24.03;14.17;;;;;;;-143.84;100.00;44306.53;5069170;28;20450;-78
2021/12/06 03:01:29;;;;;;;21.40;14.57;;;;;;;-143.84;100.00;44325.56;5068792;28;20517;-78
2021/12/06 03:03:57;;;;;;;22.63;15.40;;;;;;;-143.84;100.00;44356.03;5068925;28;20497;-78
2021/12/06 03:06:25;;;;;;;33.40;16.97;;;;;;;-143.84;100.00;44407.44;5068649;28;20487;-78
2021/12/06 03:09:02;;;;;;;59.97;23.87;;;;;;;-143.84;100.00;44426.47;5068684;28;20446;-78
2021/12/06 03:11:32;;;;;;;24.53;12.20;;;;;;;-143.84;100.00;44371.25;5069178;28;20450;-78
2021/12/06 03:13:59;;;;;;;14.43;8.77;;;;;;;-143.84;100.00;44224.66;5068797;28;20482;-78
2021/12/06 03:16:27;;;;;;;14.37;8.27;;;;;;;-143.84;100.00;44148.53;5068815;28;20440;-78
2021/12/06 03:18:55;;;;;;;17.20;9.80;;;;;;;-143.84;100.00;44154.22;5069211;28;20512;-77
2021/12/06 03:21:23;;;;;;;23.07;8.53;;;;;;;-143.84;100.00;44146.63;5068468;28;20479;-78
2021/12/06 03:23:51;;;;;;;15.90;10.03;;;;;;;-143.84;100.00;44163.75;5068723;28;21019;-78
2021/12/06 03:26:20;;;;;;;16.30;8.90;;;;;;;-143.84;100.00;44127.56;5068927;28;20439;-77
2021/12/06 03:28:48;;;;;;;13.60;7.73;;;;;;;-143.84;100.00;44127.56;5069218;28;20455;-78
2021/12/06 03:31:16;;;;;;;15.10;8.37;;;;;;;-143.84;100.00;44097.13;5068701;28;20862;-78
2021/12/06 03:33:46;;;;;;;15.70;8.53;;;;;;;-143.84;100.00;44097.13;5068349;28;20473;-78
2021/12/06 03:36:14;;;;;;;15.00;9.77;;;;;;;-143.84;100.00;44095.22;5068908;28;20440;-78
2021/12/06 03:38:42;;;;;;;15.23;7.90;;;;;;;-143.84;100.00;44074.28;5072006;28;20459;-78
2021/12/06 03:41:12;;;;;;;12.20;7.70;;;;;;;-143.84;100.00;44062.84;5071999;28;20479;-78
2021/12/06 03:43:43;;;;;;;9.50;8.10;;;;;;;-143.84;100.00;44053.34;5072204;28;20480;-78
2021/12/06 03:46:11;;;;;;;9.03;7.80;;;;;;;-143.84;100.00;44059.03;5072197;28;20506;-78
2021/12/06 03:48:38;;;;;;;7.87;6.87;;;;;;;-143.84;100.00;44041.91;5072066;28;20457;-78
2021/12/06 03:51:06;;;;;;;11.87;7.50;;;;;;;-143.84;100.00;44049.53;5070916;28;20455;-78
2021/12/06 03:53:33;;;;;;;13.87;7.60;;;;;;;-143.84;100.00;44051.44;5072038;28;20443;-78
2021/12/06 03:56:01;;;;;;;17.60;8.43;;;;;;;-143.84;100.00;44028.59;5072349;28;20843;-78
2021/12/06 03:58:28;;;;;;;16.60;8.07;;;;;;;-143.84;100.00;44015.25;5071985;28;20450;-78
2021/12/06 04:00:57;;;;;;;10.23;7.37;;;;;;;-143.84;100.00;44017.16;5071298;28;20487;-79
2021/12/06 04:03:27;;;;;;;25.67;8.50;;;;;;;-143.84;100.00;44028.59;5070777;28;20816;-78
2021/12/06 04:05:55;;;;;;;12.07;7.20;;;;;;;-143.84;100.00;44020.97;5071271;28;20460;-79
2021/12/06 04:08:23;;;;;;;10.33;6.60;;;;;;;-143.84;100.00;44019.06;5071053;28;20577;-78
2021/12/06 04:10:50;;;;;;;12.97;6.10;;;;;;;-143.84;100.00;44030.50;5071230;28;20439;-78
2021/12/06 04:13:18;;;;;;;13.10;6.67;;;;;;;-143.84;100.00;44028.59;5071576;28;20433;-79
2021/12/06 04:15:45;;;;;;;10.03;7.07;;;;;;;-143.84;100.00;44034.31;5071703;28;20440;-78
2021/12/06 04:18:14;;;;;;;11.57;6.90;;;;;;;-143.84;100.00;44051.44;5071602;28;20438;-78
2021/12/06 04:20:42;;;;;;;11.13;6.33;;;;;;;-143.84;100.00;44043.81;5071374;28;20497;-78
2021/12/06 04:23:11;;;;;;;12.77;6.50;;;;;;;-143.84;100.00;44026.69;5071115;28;20448;-78
2021/12/06 04:25:40;;;;;;;14.43;7.47;;;;;;;-143.84;100.00;44026.69;5071602;28;20443;-79
2021/12/06 04:28:09;;;;;;;12.17;6.43;;;;;;;-143.84;100.00;44043.81;5071606;28;20443;-78
2021/12/06 04:30:38;;;;;;;11.30;6.80;;;;;;;-143.84;100.00;44043.81;5071477;28;20879;-78
2021/12/06 04:33:07;;;;;;;6.70;6.10;;;;;;;-143.84;100.00;44055.25;5070959;28;20915;-78
2021/12/06 04:35:37;;;;;;;10.13;7.30;;;;;;;-143.84;100.00;44038.09;5071151;28;20440;-78
2021/12/06 04:38:07;;;;;;;10.13;7.13;;;;;;;-143.84;100.00;44041.91;5071429;28;20940;-78
2021/12/06 04:40:34;;;;;;;8.13;6.70;;;;;;;-143.84;100.00;44045.72;5071018;28;20488;-78
2021/12/06 04:43:01;;;;;;;16.47;8.17;;;;;;;-143.84;100.00;44049.53;5071286;28;20447;-78
2021/12/06 04:45:29;;;;;;;12.13;8.23;;;;;;;-143.84;100.00;44051.44;5071220;28;20517;-79
2021/12/06 04:47:57;;;;;;;13.60;8.47;;;;;;;-143.84;100.00;44051.44;5070977;28;20430;-78
2021/12/06 04:50:27;;;;;;;8.70;7.80;;;;;;;-143.84;100.00;44047.63;5070988;28;20452;-78
2021/12/06 04:52:58;;;;;;;14.53;8.23;;;;;;;-143.84;100.00;44036.22;5070865;28;20860;-79
2021/12/06 04:55:29;;;;;;;27.13;8.70;;;;;;;-143.84;100.00;44038.09;5070719;28;20495;-78
2021/12/06 04:57:57;;;;;;;11.50;7.40;;;;;;;-143.84;100.00;44040.00;5071103;28;20834;-79
2021/12/06 05:00:29;;;;;;;11.87;8.20;;;;;;;-143.84;100.00;44026.69;5070543;28;20468;-79
2021/12/06 05:02:57;;;;;;;19.17;7.70;;;;;;;-143.84;100.00;44034.31;5070806;28;20445;-78
2021/12/06 05:05:29;;;;;;;11.80;7.20;;;;;;;-143.84;100.00;44041.91;5070593;28;20448;-78
2021/12/06 05:08:01;;;;;;;21.87;7.60;;;;;;;-143.84;100.00;44041.91;5070439;28;20437;-77
2021/12/06 05:10:28;;;;;;;9.63;7.00;;;;;;;-143.84;100.00;44036.22;5070336;28;20506;-78
2021/12/06 05:12:55;;;;;;;14.50;7.90;;;;;;;-143.84;100.00;44041.91;5070043;28;20436;-77
2021/12/06 05:15:22;;;;;;;8.40;6.87;;;;;;;-143.84;100.00;44049.53;5070525;28;20768;-78
2021/12/06 05:17:50;;;;;;;18.73;7.07;;;;;;;-143.84;100.00;44055.25;5070292;28;20505;-78
2021/12/06 05:20:18;;;;;;;9.87;7.70;;;;;;;-143.84;100.00;44049.53;5070436;28;20901;-78
2021/12/06 05:22:47;;;;;;;10.70;7.33;;;;;;;-143.84;100.00;44043.81;5070421;28;20448;-79
2021/12/06 05:25:16;;;;;;;16.83;7.27;;;;;;;-143.84;100.00;44045.72;5074268;28;20448;-78
2021/12/06 05:27:44;;;;;;;9.93;6.70;;;;;;;-143.84;100.00;44053.34;5090802;28;20430;-78
2021/12/06 05:30:13;;;;;;;8.43;6.73;;;;;;;-143.84;100.00;44045.72;5090904;28;20449;-78
2021/12/06 05:32:41;;;;;;;11.10;6.77;;;;;;;-143.84;100.00;44060.94;5090137;28;20442;-79
2021/12/06 05:35:11;;;;;;;15.60;7.57;;;;;;;-143.84;100.00;44066.66;5090482;28;20454;-78
2021/12/06 05:37:42;;;;;;;10.97;6.80;;;;;;;-143.84;100.00;44074.28;5090174;28;20489;-78
2021/12/06 05:40:13;;;;;;;13.30;6.50;;;;;;;-143.84;100.00;44064.75;5090125;28;20440;-78
2021/12/06 05:42:42;;;;;;;10.03;5.90;;;;;;;-143.84;100.00;44059.03;5090176;28;20479;-78
2021/12/06 05:45:11;;;;;;;9.40;5.23;;;;;;;-143.84;100.00;44059.03;5090129;28;20452;-78
2021/12/06 05:47:38;;;;;;;6.70;5.90;;;;;;;-143.84;100.00;44051.44;5090186;28;20432;-78
2021/12/06 05:50:07;;;;;;;7.70;5.10;;;;;;;-143.84;100.00;44057.16;5089865;28;20434;-78
2021/12/06 05:52:34;;;;;;;8.43;5.60;;;;;;;-143.84;100.00;44020.97;5090016;28;20485;-78
2021/12/06 05:55:02;;;;;;;10.73;7.50;;;;;;;-143.84;100.00;44011.47;5089478;28;20443;-78
2021/12/06 05:57:29;;;;;;;10.73;6.47;;;;;;;-143.84;99.82;44003.84;5089670;28;20826;-78
2021/12/06 05:59:58;;;;;;;10.70;5.20;;;;;;;-143.84;99.93;44005.75;5089201;28;20451;-78
2021/12/06 06:02:26;;;;;;;8.20;5.57;;;;;;;-143.84;99.92;44001.94;5088946;28;20908;-78
2021/12/06 06:04:53;;;;;;;13.40;5.50;;;;;;;-143.84;99.37;43979.09;5089467;28;20435;-78
2021/12/06 06:07:20;;;;;;;10.63;5.70;;;;;;;-143.84;99.08;43965.78;5089782;28;20940;-78
2021/12/06 06:09:48;;;;;;;13.30;6.20;;;;;;;-143.84;98.55;43975.28;5089620;28;20887;-78
2021/12/06 06:12:15;;;;;;;18.03;6.83;;;;;;;-143.84;98.54;43950.53;5089364;28;21032;-78
2021/12/06 06:14:42;;;;;;;10.00;5.80;;;;;;;-143.84;98.67;43956.25;5088606;28;20436;-78
2021/12/06 06:17:13;;;;;;;6.13;5.33;;;;;;;-143.84;98.38;43960.06;5074374;28;20451;-76
2021/12/06 06:19:44;;;;;;;14.83;6.10;;;;;;;-143.84;98.39;43961.97;5069438;28;20456;-76
2021/12/06 06:22:11;;;;;;;8.97;6.30;;;;;;;-143.84;98.69;43960.06;5069303;28;20989;-77
2021/12/06 06:24:39;;;;;;;16.03;6.23;;;;;;;-143.84;97.69;43923.91;5069646;28;21000;-77
2021/12/06 06:27:07;;;;;;;12.13;6.27;;;;;;;-143.84;97.77;43935.31;5069080;28;20450;-77
2021/12/06 06:29:36;;;;;;;13.50;6.70;;;;;;;-143.84;97.41;43922.00;5069406;28;20445;-77
2021/12/06 06:32:05;;;;;;;9.00;6.10;;;;;;;-143.84;97.44;43916.28;5068589;28;20512;-76
2021/12/06 06:34:34;;;;;;;10.30;6.10;;;;;;;-143.84;97.32;43908.66;5076855;28;20866;-75
2021/12/06 06:37:02;;;;;;;8.97;6.57;;;;;;;-143.84;97.25;43902.97;5089154;28;20941;-75
2021/12/06 06:39:29;;;;;;;8.20;6.37;;;;;;;-143.84;97.02;43897.25;5088059;28;20488;-75
2021/12/06 06:41:57;;;;;;;11.13;6.57;;;;;;;-143.84;97.19;43923.91;5088755;28;20554;-75
2021/12/06 06:44:24;;;;;;;18.47;7.37;;;;;;;-143.84;97.09;43920.09;5088796;28;21053;-75
2021/12/06 06:46:52;;;;;;;14.00;6.20;;;;;;;-143.84;96.53;43876.31;5089051;28;20439;-75
2021/12/06 06:49:19;;;;;;;13.03;7.50;;;;;;;-143.84;96.53;43883.91;5088820;28;20493;-75
2021/12/06 06:51:49;;;;;;;17.40;6.67;;;;;;;-143.84;96.30;43883.91;5088768;28;20867;-75
2021/12/06 06:54:16;;;;;;;16.37;7.00;;;;;;;-143.84;95.73;43878.22;5088981;28;20470;-75
2021/12/06 06:56:44;;;;;;;10.63;6.20;;;;;;;-143.84;95.76;43876.31;5088704;28;20458;-75
2021/12/06 06:59:11;;;;;;;15.07;6.23;;;;;;;-143.84;95.90;43868.69;5088872;28;20447;-75
2021/12/06 07:01:39;;;;;;;10.60;5.70;;;;;;;-143.84;96.12;43874.41;5088325;28;20887;-75
2021/12/06 07:04:06;;;;;;;10.67;6.50;;;;;;;-143.84;96.21;43876.31;5088531;28;20928;-75
2021/12/06 07:06:33;;;;;;;15.00;6.23;;;;;;;-143.84;96.55;43889.63;5085023;28;20435;-75
2021/12/06 07:09:03;;;;;;;15.17;6.77;;;;;;;-143.84;96.58;43891.53;5088050;28;20442;-75
2021/12/06 07:11:30;;;;;;;16.63;6.67;;;;;;;-143.84;96.47;43895.34;5089200;28;21041;-75
2021/12/06 07:13:58;;;;;;;18.47;7.17;;;;;;;-143.84;96.52;43891.53;5091477;28;20801;-75
2021/12/06 07:16:26;;;;;;;8.37;6.13;;;;;;;-143.84;96.21;43889.63;5091760;28;20454;-75
2021/12/06 07:18:53;;;;;;;9.80;6.47;;;;;;;-143.84;96.46;43889.63;5092160;28;20840;-75
2021/12/06 07:21:20;;;;;;;15.00;6.03;;;;;;;-143.84;96.21;43880.13;5092636;28;20480;-75
2021/12/06 07:23:48;;;;;;;9.57;7.33;;;;;;;-143.84;96.16;43891.53;5092546;28;20454;-75
2021/12/06 07:26:19;;;;;;;10.03;7.30;;;;;;;-143.84;96.46;43885.81;5092164;28;20525;-75
2021/12/06 07:28:48;;;;;;;18.20;6.97;;;;;;;-143.84;96.21;43872.50;5092427;28;20470;-74
2021/12/06 07:31:16;;;;;;;10.97;6.30;;;;;;;-143.84;96.19;43874.41;5092508;28;20786;-73
2021/12/06 07:33:46;;;;;;;20.27;6.80;;;;;;;-143.84;96.07;43882.00;5092331;28;20485;-73
2021/12/06 07:36:13;;;;;;;16.20;5.80;;;;;;;-143.84;96.10;43889.63;5092360;28;20425;-73
2021/12/06 07:38:42;;;;;;;8.57;6.33;;;;;;;-143.84;96.37;43891.53;5092157;28;20477;-73
2021/12/06 07:41:11;;;;;;;15.13;6.30;;;;;;;-143.84;95.96;43862.97;5092098;28;20447;-74
2021/12/06 07:43:40;;;;;;;9.40;6.77;;;;;;;-143.84;96.07;43876.31;5092290;28;20944;-73
2021/12/06 07:46:09;;;;;;;9.27;6.10;;;;;;;-143.84;95.90;43878.22;5090388;28;20440;-74
2021/12/06 07:48:37;;;;;;;14.67;6.53;;;;;;;-143.84;95.75;43874.41;5090130;28;20444;-73
2021/12/06 07:51:06;;;;;;;7.80;4.30;;;;;;;-143.84;95.16;43836.34;5091377;28;20443;-74
2021/12/06 07:53:37;;;;;;;11.23;5.80;;;;;;;-143.84;95.08;43857.28;5091314;28;20447;-74
2021/12/06 07:56:04;;;;;;;11.90;6.67;;;;;;;-143.84;94.59;43840.13;5091066;28;20472;-73
2021/12/06 07:58:31;;;;;;;9.57;5.30;;;;;;;-143.84;94.75;43830.63;5091270;28;20440;-73
2021/12/06 08:01:00;;;;;;;26.43;6.57;;;;;;;-143.84;95.25;43855.38;5090862;28;20454;-73
2021/12/06 08:03:30;;;;;;;14.70;6.67;;;;;;;-143.84;96.23;43878.22;5091386;28;20889;-73
2021/12/06 08:05:58;;;;;;;16.13;7.83;;;;;;;-143.84;97.15;43914.38;5091160;28;20513;-74
2021/12/06 08:08:27;;;;;;;21.07;9.43;;;;;;;-143.84;98.34;43969.59;5090789;28;20472;-74
2021/12/06 08:10:58;;;;;;;16.03;8.10;;;;;;;-143.84;98.80;43996.22;5090711;28;20452;-73
2021/12/06 08:13:28;;;;;;;17.13;8.70;;;;;;;-143.84;99.66;44030.50;5090834;28;20462;-73
2021/12/06 08:15:58;;;;;;;20.33;8.73;;;;;;;-143.84;99.68;44009.56;5090981;28;20941;-73
2021/12/06 08:18:27;;;;;;;14.73;7.27;;;;;;;-143.84;99.66;44005.75;5090986;28;20513;-73
2021/12/06 08:20:56;;;;;;;24.70;8.27;;;;;;;-143.84;99.66;44024.78;5091077;28;20488;-73
2021/12/06 08:23:24;;;;;;;19.83;11.17;;;;;;;-143.84;99.28;44020.97;5090302;28;20943;-74
2021/12/06 08:25:52;;;;;;;18.50;10.60;;;;;;;-143.84;98.77;43986.72;5089532;28;20447;-74
2021/12/06 08:28:20;;;;;;;93.80;56.10;;;;;;;-143.84;98.28;43971.47;5089524;28;20447;-74
2021/12/06 08:30:48;;;;;;;104.73;79.63;;;;;;;-143.84;98.27;43961.97;5089219;28;20450;-74
2021/12/06 08:33:16;;;;;;;40.07;22.07;;;;;;;-143.84;98.58;43971.47;5089518;28;21056;-74
2021/12/06 08:35:48;;;;;;;16.13;9.67;;;;;;;-143.84;98.13;43961.97;5090465;28;21855;-74
2021/12/06 08:38:17;;;;;;;16.00;8.03;;;;;;;-143.84;97.85;43971.47;5089656;28;20456;-74
2021/12/06 08:40:46;;;;;;;16.53;8.57;;;;;;;-143.84;97.58;43929.59;5089714;28;20505;-74
2021/12/06 08:43:16;;;;;;;16.37;8.67;;;;;;;-143.84;96.48;43901.06;5090187;28;20484;-74
2021/12/06 08:45:44;;;;;;;14.80;8.13;;;;;;;-143.84;96.10;43882.00;5090005;28;20448;-73
2021/12/06 08:48:12;;;;;;;19.17;8.60;;;;;;;-143.84;95.70;43851.56;5090203;28;20443;-74
2021/12/06 08:50:39;;;;;;;12.80;7.20;;;;;;;-143.84;94.73;43851.56;5090382;28;20447;-74
2021/12/06 08:53:08;;;;;;;16.50;5.20;;;;;;;-143.84;92.48;43803.97;5090497;28;20445;-74
2021/12/06 08:55:35;;;;;;;8.07;6.73;;;;;;;-143.84;92.91;43824.91;5090178;28;20452;-74
2021/12/06 08:58:03;;;;;;;13.60;6.70;;;;;;;-143.84;91.50;43849.66;5087849;28;20448;-74
2021/12/06 09:00:34;;;;;;;18.83;6.90;;;;;;;-143.84;90.83;43908.66;5090003;28;20946;-74
2021/12/06 09:03:01;;;;;;;18.73;6.93;;;;;;;-143.84;89.92;44066.66;5089892;28;20488;-74
2021/12/06 09:05:41;;;;;;;19.97;10.60;;;;;;;-143.84;89.40;44110.44;5089758;28;20446;-74
2021/12/06 09:08:10;;;;;;;15.93;8.00;;;;;;;-143.84;89.56;44112.34;5088677;28;20444;-74
2021/12/06 09:10:38;;;;;;;27.40;13.53;;;;;;;-143.84;89.41;44171.38;5088153;28;20779;-73
2021/12/06 09:13:07;;;;;;;14.30;6.67;;;;;;;-143.84;89.68;44123.78;5089357;28;20455;-73
2021/12/06 09:15:35;;;;;;;22.53;7.13;;;;;;;-143.84;90.49;43994.31;5089694;28;20446;-74
2021/12/06 09:18:02;;;;;;;15.93;7.57;;;;;;;-143.84;91.00;43870.59;5089793;28;20461;-73
2021/12/06 09:20:32;;;;;;;17.07;8.27;;;;;;;-143.84;91.64;43826.81;5089316;28;20506;-74
2021/12/06 09:23:00;;;;;;;12.57;6.63;;;;;;;-143.84;92.46;43807.78;5089195;28;20509;-73
2021/12/06 09:25:30;;;;;;;20.17;6.90;;;;;;;-143.84;93.33;43807.78;5088370;28;20520;-74
2021/12/06 09:27:57;;;;;;;14.50;7.27;;;;;;;-143.84;94.22;43811.59;5089305;28;20445;-73
2021/12/06 09:30:29;;;;;;;10.03;5.67;;;;;;;-143.84;94.02;43823.00;5089216;28;20456;-74
2021/12/06 09:32:58;;;;;;;18.23;7.30;;;;;;;-143.84;94.59;43857.28;5089555;28;20475;-73
2021/12/06 09:35:28;;;;;;;10.23;5.60;;;;;;;-143.84;95.06;43868.69;5089197;28;20847;-74
2021/12/06 09:38:39;;;;;;;29.23;7.67;;;;;;;-143.84;95.25;43862.97;5090223;28;20443;-74
2021/12/06 09:41:13;;;;;;;24.90;7.47;;;;;;;-143.84;95.45;43895.34;5085041;28;20499;-73
2021/12/06 09:43:43;;;;;;;18.67;6.00;;;;;;;-143.84;95.49;43868.69;5084031;28;20494;-74
2021/12/06 09:46:12;;;;;;;22.40;8.90;;;;;;;-143.84;96.22;43902.97;5072069;28;20449;-74
2021/12/06 09:48:42;;;;;;;26.10;6.63;;;;;;;-143.84;96.21;43912.47;5084883;28;20452;-74
2021/12/06 09:51:13;;;;;;;16.33;6.70;;;;;;;-143.84;97.04;43918.19;5081203;28;21034;-73
2021/12/06 09:53:44;;;;;;;20.83;6.30;;;;;;;-143.84;97.10;43925.78;5088413;28;20577;-75
2021/12/06 09:56:16;;;;;;;14.90;6.73;;;;;;;-143.84;96.95;43937.22;5089617;28;20436;-73
2021/12/06 09:58:44;;;;;;;22.53;6.30;;;;;;;-143.84;97.28;43929.59;5083818;28;20456;-74
2021/12/06 10:01:15;;;;;;;16.63;6.57;;;;;;;-143.84;97.04;43944.84;5069053;28;20437;-73
2021/12/06 10:03:46;;;;;;;13.33;6.70;;;;;;;-143.84;96.13;43914.38;5067601;28;20841;-73
2021/12/06 10:06:14;;;;;;;11.23;6.47;;;;;;;-143.84;95.45;43882.00;5069412;28;20440;-74
2021/12/06 10:08:44;;;;;;;16.93;6.30;;;;;;;-143.84;94.73;43859.19;5085782;28;21137;-73
2021/12/06 10:11:15;;;;;;;10.13;5.83;;;;;;;-143.84;93.93;43821.09;5087738;28;20452;-74
2021/12/06 10:13:43;;;;;;;17.20;6.20;;;;;;;-143.84;93.78;43809.69;5085187;28;20460;-74
2021/12/06 10:16:11;;;;;;;17.13;5.90;;;;;;;-143.84;94.10;43855.38;5087279;28;20452;-75
2021/12/06 10:18:39;;;;;;;20.67;5.27;;;;;;;-143.84;93.31;43832.53;5087492;28;20493;-74
2021/12/06 10:21:08;;;;;;;17.50;6.30;;;;;;;-143.84;93.85;43830.63;5088360;28;20562;-74
2021/12/06 10:23:37;;;;;;;19.07;7.93;;;;;;;-143.84;94.42;43861.06;5088441;28;21243;-74
2021/12/06 10:26:07;;;;;;;19.00;7.90;;;;;;;-143.84;94.87;43872.50;5088327;28;20959;-75
2021/12/06 10:28:39;;;;;;;14.37;5.27;;;;;;;-143.84;94.49;43857.28;5088874;28;21030;-75
2021/12/06 10:31:09;;;;;;;24.60;7.97;;;;;;;-143.84;94.88;43882.00;5089667;28;20552;-74
2021/12/06 10:33:39;;;;;;;16.27;5.67;;;;;;;-143.84;94.17;43853.47;5088825;28;21284;-78
2021/12/06 10:36:09;;;;;;;25.83;5.70;;;;;;;-143.84;94.38;43840.13;5089612;28;20468;-77
2021/12/06 10:38:39;;;;;;;25.23;5.93;;;;;;;-143.84;94.40;43853.47;5089413;28;20439;-78
2021/12/06 10:41:09;;;;;;;24.17;5.40;;;;;;;-143.84;94.97;43883.91;5081503;28;20463;-78
2021/12/06 10:43:40;;;;;;;15.50;7.77;;;;;;;-143.84;95.22;43876.31;5089003;28;20471;-78
2021/12/06 10:46:09;;;;;;;19.57;7.80;;;;;;;-143.84;94.90;43859.19;5089120;28;20990;-77
2021/12/06 10:48:39;;;;;;;18.70;6.90;;;;;;;-143.84;95.36;43916.28;5089650;28;20499;-77
2021/12/06 10:51:10;;;;;;;20.20;7.10;;;;;;;-143.84;95.25;43857.28;5089422;28;20435;-78
2021/12/06 10:53:43;;;;;;;22.43;5.50;;;;;;;-143.84;95.23;43870.59;5088572;28;20436;-78
2021/12/06 10:56:16;;;;;;;14.90;5.27;;;;;;;-143.84;94.34;43840.13;5089313;28;20943;-78
2021/12/06 10:58:46;;;;;;;13.83;5.87;;;;;;;-143.84;94.06;43840.13;5088147;28;20452;-78
2021/12/06 11:01:15;;;;;;;13.93;6.00;;;;;;;-143.84;94.09;43843.94;5087969;28;20847;-78
2021/12/06 11:03:47;;;;;;;18.83;6.37;;;;;;;-143.84;94.22;43809.69;5087821;28;20479;-78
2021/12/06 11:06:19;;;;;;;12.40;5.80;;;;;;;-143.84;93.55;43823.00;5088168;28;20427;-77
2021/12/06 11:08:47;;;;;;;25.73;6.77;;;;;;;-143.84;92.78;43809.69;5088161;28;20436;-77
2021/12/06 11:11:19;;;;;;;13.97;5.73;;;;;;;-143.84;91.61;43830.63;5088437;28;20493;-77
2021/12/06 11:13:51;;;;;;;24.20;7.33;;;;;;;-143.84;91.75;43775.41;5088631;28;20951;-77
2021/12/06 11:16:22;;;;;;;18.53;6.90;;;;;;;-143.84;92.47;43796.34;5089064;28;20444;-77
2021/12/06 11:18:53;;;;;;;15.33;7.60;;;;;;;-143.84;93.00;43800.16;5086653;28;20450;-77
2021/12/06 11:21:29;;;;;;;19.17;7.40;;;;;;;-143.84;92.74;43765.91;5088684;28;20444;-77